Willits, CA (95490)

3:29 AM PDT on October 22, 2014 (GMT -0700)
Mendocino College Willits | Change Station
CLOSE
Current Station
Personal Weather Station
Location: Willits, CA
Elevation: 1355 ft
Nearby Weather Stations

Elev 1355 ft 39.41 °N, 123.35 °W | Updated 4 minutes ago

Clear
Clear
42.6 °F
Feels Like 43 °F
N
0.0
Wind Variable Wind from East
Gusts 0.0 mph

Today
High -- | Low -- °F
--% Chance of Precip.
Yesterday
High -- | Low -- °F
Precip. -- in
7:30 AM 6:24 PM
Waning Crescent, 2% visible
Pressure 30.07 in
Visibility 10.0 miles
Clouds Clear
Windchill 43 °F
Dew Point 42 °F
Humidity 96%
Rainfall 0.00 in
Snow Depth Not available.
UV 0 out of 12
Pollen 2.60 out of 12
Air Quality Not available.
Flu Activity Sporadic
METAR KUKI 220956Z AUTO 00000KT 10SM CLR 09/07 A3008 RMK AO2 SLP181 T00890072

More Conditions Fewer Conditions

Pressure 30.07 in
Visibility 10.0 miles
Clouds Clear
Windchill 43 °F
Dew Point 42 °F
Humidity 96%
Rainfall 0.00 in
Snow Depth Not available.
UV 0 out of 12
Pollen 2.60 out of 12
Air Quality Not available.
Flu Activity Sporadic
METAR KUKI 220956Z AUTO 00000KT 10SM CLR 09/07 A3008 RMK AO2 SLP181 T00890072

More Conditions Fewer Conditions

10-Day Weather Forecast

Almanac

Astronomy

Oct. 22, 2014 Rise Set
Actual Time 7:30 AM PDT 6:24 PM PDT
Civil Twilight 7:03 AM PDT 6:51 PM PDT
Nautical Twilight 6:32 AM PDT 7:22 PM PDT
Astronomical Twilight 6:00 AM PDT 7:54 PM PDT
Moon 6:17 AM PDT 5:54 PM PDT
Length of Visible Light 11h 48m
Length of Day
10h 53m
Tomorrow will be 2m 24s shorter.
Waning Crescent, 2% of the Moon is Illuminated
Today
Waning Crescent
Oct 23
New
Oct 30
First Quarter
Nov 6
Full
Nov 14
Last Quarter

Today's Extremes

State Highs State Lows

Community

WunderPhotos

Upload Photos

1,763,902 photos uploaded!

Nearby

Snow Depth

Station Depth Elevation
CSS Lab 2 in 6900 ft
Independence Lake 0 in 8450 ft
Independence Creek 0 in 6500 ft
Squaw Valley 0 in 8200 ft
Truckee #2 0 in 6400 ft

Earthquake Activity

City Distance Mag. Time & Date
Rio Dell, California 80 miles 4.2 7:24 AM PDT
2014-10-19
Minimum magnitude displayed is 2.5.

Coastal Water Temperatures

Place Temperature
Arena Cove, CA 59.0 °F
North Spit, CA 57.9 °F
Point Reyes, CA 61.0 °F
San Francisco, CA 62.1 °F
Richmond, CA 64.0 °F

Nearby Weather Stations